sensor_id;sensor_type;location;lat;lon;timestamp;pressure;altitude;pressure_sealevel;temperature
70415;BMP280;57837;52.064;113.478;2023-01-29T00:00:07;93492.34;;;-10.95
70415;BMP280;57837;52.064;113.478;2023-01-29T00:03:15;93492.38;;;-10.78
70415;BMP280;57837;52.064;113.478;2023-01-29T00:06:19;93495.66;;;-10.51
70415;BMP280;57837;52.064;113.478;2023-01-29T00:09:22;93487.84;;;-10.32
70415;BMP280;57837;52.064;113.478;2023-01-29T00:12:26;93482.97;;;-10.29
70415;BMP280;57837;52.064;113.478;2023-01-29T00:15:30;93482.13;;;-10.42
70415;BMP280;57837;52.064;113.478;2023-01-29T00:18:37;93490.78;;;-10.56
70415;BMP280;57837;52.064;113.478;2023-01-29T00:21:41;93484.91;;;-10.60
70415;BMP280;57837;52.064;113.478;2023-01-29T00:24:44;93483.00;;;-10.46
70415;BMP280;57837;52.064;113.478;2023-01-29T00:27:48;93477.13;;;-10.50
70415;BMP280;57837;52.064;113.478;2023-01-29T00:30:54;93485.50;;;-10.46
70415;BMP280;57837;52.064;113.478;2023-01-29T00:33:57;93480.03;;;-10.39
70415;BMP280;57837;52.064;113.478;2023-01-29T00:37:01;93477.09;;;-10.33
70415;BMP280;57837;52.064;113.478;2023-01-29T00:40:07;93484.47;;;-10.28
70415;BMP280;57837;52.064;113.478;2023-01-29T00:43:11;93485.34;;;-10.15
70415;BMP280;57837;52.064;113.478;2023-01-29T00:46:33;93480.00;;;-10.05
70415;BMP280;57837;52.064;113.478;2023-01-29T00:49:36;93486.91;;;-9.93
70415;BMP280;57837;52.064;113.478;2023-01-29T00:52:41;93481.59;;;-9.92
70415;BMP280;57837;52.064;113.478;2023-01-29T00:55:44;93482.03;;;-9.90
70415;BMP280;57837;52.064;113.478;2023-01-29T00:58:48;93489.25;;;-9.88
70415;BMP280;57837;52.064;113.478;2023-01-29T01:01:51;93485.72;;;-9.87
70415;BMP280;57837;52.064;113.478;2023-01-29T01:05:16;93490.25;;;-9.80
70415;BMP280;57837;52.064;113.478;2023-01-29T01:08:22;93494.50;;;-9.72
70415;BMP280;57837;52.064;113.478;2023-01-29T01:11:44;93484.66;;;-9.39
70415;BMP280;57837;52.064;113.478;2023-01-29T01:14:48;93489.91;;;-9.03
70415;BMP280;57837;52.064;113.478;2023-01-29T01:17:57;93481.50;;;-8.77
70415;BMP280;57837;52.064;113.478;2023-01-29T01:21:01;93484.78;;;-8.65
70415;BMP280;57837;52.064;113.478;2023-01-29T01:24:04;93482.22;;;-8.56
70415;BMP280;57837;52.064;113.478;2023-01-29T01:27:07;93477.91;;;-8.35
70415;BMP280;57837;52.064;113.478;2023-01-29T01:30:14;93483.69;;;-8.22
70415;BMP280;57837;52.064;113.478;2023-01-29T01:33:18;93482.75;;;-8.17
70415;BMP280;57837;52.064;113.478;2023-01-29T01:36:22;93488.13;;;-8.07
70415;BMP280;57837;52.064;113.478;2023-01-29T01:39:26;93486.91;;;-8.00
70415;BMP280;57837;52.064;113.478;2023-01-29T01:42:30;93493.41;;;-7.99
70415;BMP280;57837;52.064;113.478;2023-01-29T01:45:35;93491.78;;;-8.04
70415;BMP280;57837;52.064;113.478;2023-01-29T01:48:38;93484.19;;;-7.95
70415;BMP280;57837;52.064;113.478;2023-01-29T01:51:46;93478.16;;;-7.70
70415;BMP280;57837;52.064;113.478;2023-01-29T01:54:51;93477.31;;;-7.50
70415;BMP280;57837;52.064;113.478;2023-01-29T01:58:05;93466.31;;;-7.21
70415;BMP280;57837;52.064;113.478;2023-01-29T02:01:11;93464.19;;;-7.06
70415;BMP280;57837;52.064;113.478;2023-01-29T02:04:22;93474.31;;;-6.91
70415;BMP280;57837;52.064;113.478;2023-01-29T02:07:46;93479.75;;;-6.89
70415;BMP280;57837;52.064;113.478;2023-01-29T02:11:09;93473.50;;;-6.67
70415;BMP280;57837;52.064;113.478;2023-01-29T02:14:12;93473.81;;;-6.40
70415;BMP280;57837;52.064;113.478;2023-01-29T02:17:17;93472.28;;;-6.45
70415;BMP280;57837;52.064;113.478;2023-01-29T02:20:24;93473.53;;;-6.51
70415;BMP280;57837;52.064;113.478;2023-01-29T02:30:13;93470.13;;;-7.11
70415;BMP280;57837;52.064;113.478;2023-01-29T02:40:06;93460.78;;;-6.30
70415;BMP280;57837;52.064;113.478;2023-01-29T02:43:21;93469.41;;;-6.00
70415;BMP280;57837;52.064;113.478;2023-01-29T02:46:59;93474.44;;;-5.68
70415;BMP280;57837;52.064;113.478;2023-01-29T02:54:36;93480.25;;;-5.33
70415;BMP280;57837;52.064;113.478;2023-01-29T02:57:19;93484.69;;;-4.91
70415;BMP280;57837;52.064;113.478;2023-01-29T03:00:31;93472.25;;;-4.61
70415;BMP280;57837;52.064;113.478;2023-01-29T03:03:42;93471.69;;;-4.09
70415;BMP280;57837;52.064;113.478;2023-01-29T03:06:51;93467.84;;;-3.76
70415;BMP280;57837;52.064;113.478;2023-01-29T03:09:56;93463.09;;;-3.55
70415;BMP280;57837;52.064;113.478;2023-01-29T03:13:29;93467.78;;;-3.57
70415;BMP280;57837;52.064;113.478;2023-01-29T03:16:35;93458.63;;;-3.65
70415;BMP280;57837;52.064;113.478;2023-01-29T03:19:43;93457.69;;;-3.53
70415;BMP280;57837;52.064;113.478;2023-01-29T03:22:59;93464.97;;;-3.22
70415;BMP280;57837;52.064;113.478;2023-01-29T03:26:05;93458.53;;;-3.16
70415;BMP280;57837;52.064;113.478;2023-01-29T03:29:37;93456.41;;;-3.14
70415;BMP280;57837;52.064;113.478;2023-01-29T03:33:17;93458.16;;;-3.48
70415;BMP280;57837;52.064;113.478;2023-01-29T03:36:30;93457.91;;;-3.66
70415;BMP280;57837;52.064;113.478;2023-01-29T03:39:40;93456.00;;;-3.72
70415;BMP280;57837;52.064;113.478;2023-01-29T03:43:04;93450.56;;;-3.97
70415;BMP280;57837;52.064;113.478;2023-01-29T03:46:54;93449.25;;;-3.91
70415;BMP280;57837;52.064;113.478;2023-01-29T03:50:02;93433.16;;;-4.02
70415;BMP280;57837;52.064;113.478;2023-01-29T04:00:19;93426.28;;;-4.05
70415;BMP280;57837;52.064;113.478;2023-01-29T04:03:41;93428.19;;;-4.44
70415;BMP280;57837;52.064;113.478;2023-01-29T04:06:48;93425.19;;;-4.73
70415;BMP280;57837;52.064;113.478;2023-01-29T04:10:04;93423.81;;;-4.70
70415;BMP280;57837;52.064;113.478;2023-01-29T04:13:12;93420.69;;;-4.41
70415;BMP280;57837;52.064;113.478;2023-01-29T04:16:27;93414.81;;;-3.99
70415;BMP280;57837;52.064;113.478;2023-01-29T04:19:53;93415.09;;;-3.78
70415;BMP280;57837;52.064;113.478;2023-01-29T04:22:57;93411.50;;;-3.77
70415;BMP280;57837;52.064;113.478;2023-01-29T04:29:56;93404.81;;;-3.36
70415;BMP280;57837;52.064;113.478;2023-01-29T04:36:36;93406.63;;;-3.36
70415;BMP280;57837;52.064;113.478;2023-01-29T04:43:07;93408.72;;;-3.42
70415;BMP280;57837;52.064;113.478;2023-01-29T04:46:18;93404.63;;;-3.50
70415;BMP280;57837;52.064;113.478;2023-01-29T04:53:01;93417.81;;;-3.37
70415;BMP280;57837;52.064;113.478;2023-01-29T04:56:14;93416.44;;;-3.31
70415;BMP280;57837;52.064;113.478;2023-01-29T04:59:43;93422.00;;;-3.48
70415;BMP280;57837;52.064;113.478;2023-01-29T05:02:48;93408.75;;;-3.68
70415;BMP280;57837;52.064;113.478;2023-01-29T05:05:51;93416.56;;;-3.77
70415;BMP280;57837;52.064;113.478;2023-01-29T05:08:56;93415.09;;;-3.78
70415;BMP280;57837;52.064;113.478;2023-01-29T05:12:01;93423.53;;;-3.70
70415;BMP280;57837;52.064;113.478;2023-01-29T05:15:09;93423.88;;;-3.72
70415;BMP280;57837;52.064;113.478;2023-01-29T05:18:15;93426.22;;;-3.59
70415;BMP280;57837;52.064;113.478;2023-01-29T05:21:18;93424.78;;;-3.57
70415;BMP280;57837;52.064;113.478;2023-01-29T05:24:25;93421.59;;;-3.50
70415;BMP280;57837;52.064;113.478;2023-01-29T05:27:33;93417.78;;;-3.41
70415;BMP280;57837;52.064;113.478;2023-01-29T05:30:56;93419.22;;;-3.40
70415;BMP280;57837;52.064;113.478;2023-01-29T05:34:00;93412.56;;;-3.21
70415;BMP280;57837;52.064;113.478;2023-01-29T05:37:08;93415.31;;;-3.34
70415;BMP280;57837;52.064;113.478;2023-01-29T05:40:12;93412.31;;;-3.43
70415;BMP280;57837;52.064;113.478;2023-01-29T05:43:18;93405.50;;;-3.39
70415;BMP280;57837;52.064;113.478;2023-01-29T05:46:22;93418.53;;;-3.37
70415;BMP280;57837;52.064;113.478;2023-01-29T05:49:27;93411.25;;;-3.42
70415;BMP280;57837;52.064;113.478;2023-01-29T05:52:34;93401.47;;;-3.43
70415;BMP280;57837;52.064;113.478;2023-01-29T05:55:43;93407.06;;;-3.30
70415;BMP280;57837;52.064;113.478;2023-01-29T05:58:48;93406.09;;;-3.49
70415;BMP280;57837;52.064;113.478;2023-01-29T06:01:51;93411.09;;;-3.56
70415;BMP280;57837;52.064;113.478;2023-01-29T06:04:56;93407.03;;;-3.60
70415;BMP280;57837;52.064;113.478;2023-01-29T06:08:00;93408.03;;;-3.69
70415;BMP280;57837;52.064;113.478;2023-01-29T06:11:07;93416.81;;;-3.59
70415;BMP280;57837;52.064;113.478;2023-01-29T06:14:11;93416.00;;;-3.67
70415;BMP280;57837;52.064;113.478;2023-01-29T06:17:15;93422.22;;;-3.60
70415;BMP280;57837;52.064;113.478;2023-01-29T06:20:18;93422.50;;;-3.66
70415;BMP280;57837;52.064;113.478;2023-01-29T06:23:22;93416.03;;;-3.63
70415;BMP280;57837;52.064;113.478;2023-01-29T06:26:26;93419.66;;;-3.64
70415;BMP280;57837;52.064;113.478;2023-01-29T06:29:30;93419.31;;;-3.62
70415;BMP280;57837;52.064;113.478;2023-01-29T06:32:33;93427.34;;;-3.53
70415;BMP280;57837;52.064;113.478;2023-01-29T06:35:37;93422.16;;;-3.64
70415;BMP280;57837;52.064;113.478;2023-01-29T06:38:41;93418.66;;;-3.56
70415;BMP280;57837;52.064;113.478;2023-01-29T06:41:44;93416.78;;;-3.62
70415;BMP280;57837;52.064;113.478;2023-01-29T06:44:48;93423.59;;;-3.67
70415;BMP280;57837;52.064;113.478;2023-01-29T06:47:52;93426.94;;;-3.59
70415;BMP280;57837;52.064;113.478;2023-01-29T06:51:01;93435.66;;;-3.53
70415;BMP280;57837;52.064;113.478;2023-01-29T06:54:05;93438.19;;;-3.53
70415;BMP280;57837;52.064;113.478;2023-01-29T06:57:10;93430.81;;;-3.39
70415;BMP280;57837;52.064;113.478;2023-01-29T07:00:14;93432.34;;;-3.30
70415;BMP280;57837;52.064;113.478;2023-01-29T07:03:19;93431.53;;;-3.38
70415;BMP280;57837;52.064;113.478;2023-01-29T07:06:28;93440.09;;;-3.46
70415;BMP280;57837;52.064;113.478;2023-01-29T07:09:31;93432.94;;;-3.41
70415;BMP280;57837;52.064;113.478;2023-01-29T07:12:35;93445.00;;;-3.27
70415;BMP280;57837;52.064;113.478;2023-01-29T07:15:38;93444.06;;;-3.19
70415;BMP280;57837;52.064;113.478;2023-01-29T07:18:42;93445.91;;;-3.16
70415;BMP280;57837;52.064;113.478;2023-01-29T07:21:46;93448.03;;;-3.18
70415;BMP280;57837;52.064;113.478;2023-01-29T07:24:50;93448.66;;;-3.24
70415;BMP280;57837;52.064;113.478;2023-01-29T07:27:53;93443.06;;;-3.41
70415;BMP280;57837;52.064;113.478;2023-01-29T07:30:58;93451.00;;;-3.42
70415;BMP280;57837;52.064;113.478;2023-01-29T07:34:06;93454.75;;;-3.55
70415;BMP280;57837;52.064;113.478;2023-01-29T07:37:10;93451.91;;;-3.54
70415;BMP280;57837;52.064;113.478;2023-01-29T07:40:13;93458.72;;;-3.58
70415;BMP280;57837;52.064;113.478;2023-01-29T07:43:17;93457.84;;;-3.69
70415;BMP280;57837;52.064;113.478;2023-01-29T07:46:20;93460.53;;;-3.81
70415;BMP280;57837;52.064;113.478;2023-01-29T07:49:24;93455.13;;;-3.83
70415;BMP280;57837;52.064;113.478;2023-01-29T07:52:31;93456.03;;;-3.95
70415;BMP280;57837;52.064;113.478;2023-01-29T07:55:35;93456.97;;;-4.03
70415;BMP280;57837;52.064;113.478;2023-01-29T07:58:38;93457.91;;;-4.15
70415;BMP280;57837;52.064;113.478;2023-01-29T08:01:41;93457.03;;;-4.22
70415;BMP280;57837;52.064;113.478;2023-01-29T08:04:45;93460.38;;;-4.38
70415;BMP280;57837;52.064;113.478;2023-01-29T08:07:52;93455.63;;;-4.43
70415;BMP280;57837;52.064;113.478;2023-01-29T08:11:08;93456.75;;;-4.40
70415;BMP280;57837;52.064;113.478;2023-01-29T08:14:12;93455.50;;;-4.50
70415;BMP280;57837;52.064;113.478;2023-01-29T08:17:17;93446.75;;;-4.56
70415;BMP280;57837;52.064;113.478;2023-01-29T08:20:22;93460.34;;;-4.61
70415;BMP280;57837;52.064;113.478;2023-01-29T08:23:26;93463.38;;;-4.74
70415;BMP280;57837;52.064;113.478;2023-01-29T08:26:29;93455.38;;;-4.76
70415;BMP280;57837;52.064;113.478;2023-01-29T08:29:32;93466.22;;;-4.76
70415;BMP280;57837;52.064;113.478;2023-01-29T08:32:35;93469.34;;;-4.82
70415;BMP280;57837;52.064;113.478;2023-01-29T08:35:39;93469.34;;;-4.82
70415;BMP280;57837;52.064;113.478;2023-01-29T08:38:43;93475.66;;;-4.92
70415;BMP280;57837;52.064;113.478;2023-01-29T08:41:47;93481.09;;;-5.09
70415;BMP280;57837;52.064;113.478;2023-01-29T08:44:51;93482.38;;;-5.15
70415;BMP280;57837;52.064;113.478;2023-01-29T08:47:55;93486.78;;;-5.12
70415;BMP280;57837;52.064;113.478;2023-01-29T08:50:59;93484.25;;;-5.12
70415;BMP280;57837;52.064;113.478;2023-01-29T08:54:04;93493.56;;;-5.32
70415;BMP280;57837;52.064;113.478;2023-01-29T08:57:08;93494.28;;;-5.51
70415;BMP280;57837;52.064;113.478;2023-01-29T09:00:12;93499.72;;;-5.65
70415;BMP280;57837;52.064;113.478;2023-01-29T09:03:17;93499.22;;;-5.70
70415;BMP280;57837;52.064;113.478;2023-01-29T09:06:21;93508.81;;;-5.76
70415;BMP280;57837;52.064;113.478;2023-01-29T09:09:24;93505.66;;;-5.89
70415;BMP280;57837;52.064;113.478;2023-01-29T09:12:28;93502.31;;;-6.08
70415;BMP280;57837;52.064;113.478;2023-01-29T09:15:32;93504.31;;;-6.14
70415;BMP280;57837;52.064;113.478;2023-01-29T09:18:36;93513.56;;;-6.18
70415;BMP280;57837;52.064;113.478;2023-01-29T09:21:40;93511.91;;;-6.26
70415;BMP280;57837;52.064;113.478;2023-01-29T09:24:46;93509.88;;;-6.36
70415;BMP280;57837;52.064;113.478;2023-01-29T09:27:49;93519.25;;;-6.49
70415;BMP280;57837;52.064;113.478;2023-01-29T09:30:52;93521.41;;;-6.75
70415;BMP280;57837;52.064;113.478;2023-01-29T09:33:56;93529.63;;;-6.91
70415;BMP280;57837;52.064;113.478;2023-01-29T09:37:00;93528.91;;;-6.91
70415;BMP280;57837;52.064;113.478;2023-01-29T09:40:03;93527.34;;;-6.96
70415;BMP280;57837;52.064;113.478;2023-01-29T09:43:44;93536.75;;;-6.93
70415;BMP280;57837;52.064;113.478;2023-01-29T09:46:50;93542.84;;;-6.94
70415;BMP280;57837;52.064;113.478;2023-01-29T09:53:42;93536.22;;;-7.11
70415;BMP280;57837;52.064;113.478;2023-01-29T09:56:51;93543.59;;;-7.18
70415;BMP280;57837;52.064;113.478;2023-01-29T09:59:56;93557.72;;;-7.25
70415;BMP280;57837;52.064;113.478;2023-01-29T10:09:57;93571.22;;;-7.42
70415;BMP280;57837;52.064;113.478;2023-01-29T10:16:47;93562.31;;;-7.52
70415;BMP280;57837;52.064;113.478;2023-01-29T10:26:35;93550.50;;;-7.84
70415;BMP280;57837;52.064;113.478;2023-01-29T10:29:42;93551.66;;;-7.94
70415;BMP280;57837;52.064;113.478;2023-01-29T10:32:49;93557.81;;;-7.91
70415;BMP280;57837;52.064;113.478;2023-01-29T10:35:57;93559.06;;;-7.97
70415;BMP280;57837;52.064;113.478;2023-01-29T10:39:04;93562.22;;;-8.00
70415;BMP280;57837;52.064;113.478;2023-01-29T10:42:14;93560.72;;;-8.02
70415;BMP280;57837;52.064;113.478;2023-01-29T10:55:23;93570.75;;;-8.85
70415;BMP280;57837;52.064;113.478;2023-01-29T11:01:44;93580.03;;;-9.24
70415;BMP280;57837;52.064;113.478;2023-01-29T11:04:47;93585.66;;;-9.27
70415;BMP280;57837;52.064;113.478;2023-01-29T11:08:19;93586.44;;;-9.43
70415;BMP280;57837;52.064;113.478;2023-01-29T11:14:51;93574.44;;;-9.76
70415;BMP280;57837;52.064;113.478;2023-01-29T11:18:01;93573.56;;;-9.97
70415;BMP280;57837;52.064;113.478;2023-01-29T11:21:05;93570.22;;;-10.01
70415;BMP280;57837;52.064;113.478;2023-01-29T11:24:13;93563.72;;;-10.11
70415;BMP280;57837;52.064;113.478;2023-01-29T11:27:25;93572.25;;;-10.29
70415;BMP280;57837;52.064;113.478;2023-01-29T11:30:37;93565.78;;;-10.48
70415;BMP280;57837;52.064;113.478;2023-01-29T11:33:43;93570.78;;;-10.30
70415;BMP280;57837;52.064;113.478;2023-01-29T11:43:31;93575.03;;;-10.39
70415;BMP280;57837;52.064;113.478;2023-01-29T11:46:38;93563.44;;;-10.35
70415;BMP280;57837;52.064;113.478;2023-01-29T11:49:47;93567.84;;;-10.41
70415;BMP280;57837;52.064;113.478;2023-01-29T11:52:53;93564.91;;;-10.52
70415;BMP280;57837;52.064;113.478;2023-01-29T11:55:56;93563.25;;;-10.56
70415;BMP280;57837;52.064;113.478;2023-01-29T11:59:00;93570.00;;;-10.65
70415;BMP280;57837;52.064;113.478;2023-01-29T12:05:23;93574.28;;;-10.57
70415;BMP280;57837;52.064;113.478;2023-01-29T12:08:33;93567.81;;;-10.58
70415;BMP280;57837;52.064;113.478;2023-01-29T12:11:37;93565.47;;;-10.46
70415;BMP280;57837;52.064;113.478;2023-01-29T12:14:43;93577.09;;;-10.50
70415;BMP280;57837;52.064;113.478;2023-01-29T12:18:02;93570.47;;;-10.46
70415;BMP280;57837;52.064;113.478;2023-01-29T12:21:23;93564.31;;;-10.31
70415;BMP280;57837;52.064;113.478;2023-01-29T12:24:49;93583.00;;;-10.20
70415;BMP280;57837;52.064;113.478;2023-01-29T12:28:30;93577.72;;;-10.45
70415;BMP280;57837;52.064;113.478;2023-01-29T12:35:23;93586.03;;;-10.66
70415;BMP280;57837;52.064;113.478;2023-01-29T12:38:28;93577.91;;;-10.81
70415;BMP280;57837;52.064;113.478;2023-01-29T12:41:53;93586.84;;;-10.88
70415;BMP280;57837;52.064;113.478;2023-01-29T12:45:00;93586.69;;;-10.92
70415;BMP280;57837;52.064;113.478;2023-01-29T12:48:07;93594.00;;;-11.04
70415;BMP280;57837;52.064;113.478;2023-01-29T12:51:21;93598.66;;;-11.11
70415;BMP280;57837;52.064;113.478;2023-01-29T12:54:45;93595.28;;;-11.15
70415;BMP280;57837;52.064;113.478;2023-01-29T12:58:31;93595.88;;;-11.41
70415;BMP280;57837;52.064;113.478;2023-01-29T13:01:35;93597.16;;;-11.21
70415;BMP280;57837;52.064;113.478;2023-01-29T13:04:45;93592.19;;;-11.12
70415;BMP280;57837;52.064;113.478;2023-01-29T13:07:55;93592.78;;;-11.15
70415;BMP280;57837;52.064;113.478;2023-01-29T13:11:07;93605.84;;;-11.41
70415;BMP280;57837;52.064;113.478;2023-01-29T13:17:47;93599.94;;;-11.53
70415;BMP280;57837;52.064;113.478;2023-01-29T13:20:52;93607.47;;;-11.67
70415;BMP280;57837;52.064;113.478;2023-01-29T13:24:02;93612.06;;;-11.61
70415;BMP280;57837;52.064;113.478;2023-01-29T13:27:06;93609.50;;;-11.47
70415;BMP280;57837;52.064;113.478;2023-01-29T13:30:31;93614.84;;;-11.62
70415;BMP280;57837;52.064;113.478;2023-01-29T13:33:36;93608.59;;;-11.73
70415;BMP280;57837;52.064;113.478;2023-01-29T13:36:47;93616.78;;;-11.59
70415;BMP280;57837;52.064;113.478;2023-01-29T13:39:53;93606.78;;;-11.59
70415;BMP280;57837;52.064;113.478;2023-01-29T13:42:58;93600.50;;;-11.56
70415;BMP280;57837;52.064;113.478;2023-01-29T13:46:11;93604.34;;;-11.50
70415;BMP280;57837;52.064;113.478;2023-01-29T13:49:25;93603.13;;;-11.62
70415;BMP280;57837;52.064;113.478;2023-01-29T13:52:42;93609.38;;;-11.64
70415;BMP280;57837;52.064;113.478;2023-01-29T13:55:47;93607.53;;;-11.59
70415;BMP280;57837;52.064;113.478;2023-01-29T13:58:52;93605.22;;;-11.55
70415;BMP280;57837;52.064;113.478;2023-01-29T14:01:59;93617.72;;;-11.46
70415;BMP280;57837;52.064;113.478;2023-01-29T14:11:47;93603.03;;;-11.93
70415;BMP280;57837;52.064;113.478;2023-01-29T14:15:31;93603.16;;;-11.98
70415;BMP280;57837;52.064;113.478;2023-01-29T14:18:30;93594.59;;;-12.05
70415;BMP280;57837;52.064;113.478;2023-01-29T14:21:35;93599.69;;;-11.88
70415;BMP280;57837;52.064;113.478;2023-01-29T14:24:41;93597.94;;;-11.88
70415;BMP280;57837;52.064;113.478;2023-01-29T14:27:48;93600.88;;;-12.08
70415;BMP280;57837;52.064;113.478;2023-01-29T14:30:52;93608.63;;;-12.23
70415;BMP280;57837;52.064;113.478;2023-01-29T14:34:00;93607.03;;;-12.41
70415;BMP280;57837;52.064;113.478;2023-01-29T14:43:22;93601.78;;;-12.67
70415;BMP280;57837;52.064;113.478;2023-01-29T14:49:51;93613.50;;;-12.68
70415;BMP280;57837;52.064;113.478;2023-01-29T14:59:33;93612.13;;;-12.60
70415;BMP280;57837;52.064;113.478;2023-01-29T15:02:43;93600.47;;;-12.92
70415;BMP280;57837;52.064;113.478;2023-01-29T15:05:48;93603.41;;;-13.18
70415;BMP280;57837;52.064;113.478;2023-01-29T15:09:01;93619.22;;;-13.27
70415;BMP280;57837;52.064;113.478;2023-01-29T15:12:35;93617.38;;;-13.36
70415;BMP280;57837;52.064;113.478;2023-01-29T15:15:51;93610.53;;;-13.30
70415;BMP280;57837;52.064;113.478;2023-01-29T15:19:12;93610.34;;;-13.47
70415;BMP280;57837;52.064;113.478;2023-01-29T15:22:20;93607.47;;;-13.41
70415;BMP280;57837;52.064;113.478;2023-01-29T15:25:24;93621.50;;;-13.31
70415;BMP280;57837;52.064;113.478;2023-01-29T15:28:29;93613.00;;;-13.44
70415;BMP280;57837;52.064;113.478;2023-01-29T15:31:34;93609.28;;;-13.60
70415;BMP280;57837;52.064;113.478;2023-01-29T15:34:41;93611.31;;;-13.62
70415;BMP280;57837;52.064;113.478;2023-01-29T15:38:00;93609.47;;;-13.56
70415;BMP280;57837;52.064;113.478;2023-01-29T15:41:18;93606.06;;;-13.61
70415;BMP280;57837;52.064;113.478;2023-01-29T15:44:22;93609.00;;;-13.59
70415;BMP280;57837;52.064;113.478;2023-01-29T15:47:30;93605.78;;;-13.59
70415;BMP280;57837;52.064;113.478;2023-01-29T15:50:36;93602.63;;;-13.65
70415;BMP280;57837;52.064;113.478;2023-01-29T15:56:51;93602.56;;;-13.78
70415;BMP280;57837;52.064;113.478;2023-01-29T15:59:56;93603.19;;;-13.87
70415;BMP280;57837;52.064;113.478;2023-01-29T16:03:12;93598.75;;;-13.90
70415;BMP280;57837;52.064;113.478;2023-01-29T16:06:17;93600.16;;;-14.02
70415;BMP280;57837;52.064;113.478;2023-01-29T16:09:25;93601.50;;;-14.10
70415;BMP280;57837;52.064;113.478;2023-01-29T16:12:31;93596.81;;;-14.30
70415;BMP280;57837;52.064;113.478;2023-01-29T16:15:37;93590.47;;;-14.41
70415;BMP280;57837;52.064;113.478;2023-01-29T16:18:44;93589.22;;;-14.44
70415;BMP280;57837;52.064;113.478;2023-01-29T16:22:04;93589.97;;;-14.44
70415;BMP280;57837;52.064;113.478;2023-01-29T16:25:13;93586.78;;;-14.49
70415;BMP280;57837;52.064;113.478;2023-01-29T16:28:18;93586.00;;;-14.63
70415;BMP280;57837;52.064;113.478;2023-01-29T16:31:25;93586.00;;;-14.45
70415;BMP280;57837;52.064;113.478;2023-01-29T16:34:33;93585.50;;;-14.41
70415;BMP280;57837;52.064;113.478;2023-01-29T16:37:37;93587.53;;;-14.49
70415;BMP280;57837;52.064;113.478;2023-01-29T16:50:32;93591.75;;;-15.21
70415;BMP280;57837;52.064;113.478;2023-01-29T16:56:59;93595.66;;;-15.44
70415;BMP280;57837;52.064;113.478;2023-01-29T17:00:06;93589.34;;;-15.31
70415;BMP280;57837;52.064;113.478;2023-01-29T17:03:11;93584.22;;;-15.40
70415;BMP280;57837;52.064;113.478;2023-01-29T17:06:24;93585.09;;;-15.26
70415;BMP280;57837;52.064;113.478;2023-01-29T17:09:31;93587.38;;;-15.34
70415;BMP280;57837;52.064;113.478;2023-01-29T17:12:36;93592.59;;;-15.70
70415;BMP280;57837;52.064;113.478;2023-01-29T17:18:45;93590.28;;;-15.56
70415;BMP280;57837;52.064;113.478;2023-01-29T17:21:49;93582.50;;;-15.78
70415;BMP280;57837;52.064;113.478;2023-01-29T17:24:53;93593.28;;;-16.03
70415;BMP280;57837;52.064;113.478;2023-01-29T17:27:59;93601.47;;;-16.03
70415;BMP280;57837;52.064;113.478;2023-01-29T17:31:04;93594.22;;;-16.44
70415;BMP280;57837;52.064;113.478;2023-01-29T17:34:14;93588.25;;;-16.38
70415;BMP280;57837;52.064;113.478;2023-01-29T17:37:17;93591.03;;;-16.44
70415;BMP280;57837;52.064;113.478;2023-01-29T17:40:27;93587.47;;;-16.23
70415;BMP280;57837;52.064;113.478;2023-01-29T17:43:34;93580.91;;;-16.53
70415;BMP280;57837;52.064;113.478;2023-01-29T17:46:38;93581.19;;;-16.65
70415;BMP280;57837;52.064;113.478;2023-01-29T17:49:42;93583.91;;;-16.61
70415;BMP280;57837;52.064;113.478;2023-01-29T17:52:45;93593.81;;;-16.66
70415;BMP280;57837;52.064;113.478;2023-01-29T17:55:49;93589.31;;;-16.49
70415;BMP280;57837;52.064;113.478;2023-01-29T17:58:52;93595.06;;;-16.74
70415;BMP280;57837;52.064;113.478;2023-01-29T18:01:57;93597.28;;;-16.77
70415;BMP280;57837;52.064;113.478;2023-01-29T18:05:01;93600.28;;;-16.75
70415;BMP280;57837;52.064;113.478;2023-01-29T18:08:04;93597.50;;;-16.64
70415;BMP280;57837;52.064;113.478;2023-01-29T18:11:09;93600.03;;;-16.79
70415;BMP280;57837;52.064;113.478;2023-01-29T18:14:14;93600.31;;;-17.06
70415;BMP280;57837;52.064;113.478;2023-01-29T18:17:17;93602.53;;;-17.14
70415;BMP280;57837;52.064;113.478;2023-01-29T18:20:24;93600.78;;;-17.04
70415;BMP280;57837;52.064;113.478;2023-01-29T18:23:28;93587.69;;;-17.04
70415;BMP280;57837;52.064;113.478;2023-01-29T18:26:33;93577.03;;;-16.89
70415;BMP280;57837;52.064;113.478;2023-01-29T18:29:38;93575.03;;;-16.77
70415;BMP280;57837;52.064;113.478;2023-01-29T18:32:40;93573.00;;;-16.55
70415;BMP280;57837;52.064;113.478;2023-01-29T18:35:44;93580.91;;;-16.58
70415;BMP280;57837;52.064;113.478;2023-01-29T18:38:50;93587.16;;;-16.86
70415;BMP280;57837;52.064;113.478;2023-01-29T18:41:54;93600.56;;;-17.02
70415;BMP280;57837;52.064;113.478;2023-01-29T18:44:57;93592.63;;;-17.20
70415;BMP280;57837;52.064;113.478;2023-01-29T18:48:01;93586.72;;;-17.54
70415;BMP280;57837;52.064;113.478;2023-01-29T18:51:04;93579.31;;;-17.59
70415;BMP280;57837;52.064;113.478;2023-01-29T18:54:10;93591.41;;;-17.63
70415;BMP280;57837;52.064;113.478;2023-01-29T18:57:15;93597.31;;;-17.74
70415;BMP280;57837;52.064;113.478;2023-01-29T19:00:38;93602.72;;;-17.77
70415;BMP280;57837;52.064;113.478;2023-01-29T19:03:43;93610.09;;;-17.92
70415;BMP280;57837;52.064;113.478;2023-01-29T19:06:47;93614.00;;;-18.17
70415;BMP280;57837;52.064;113.478;2023-01-29T19:09:51;93616.75;;;-18.66
70415;BMP280;57837;52.064;113.478;2023-01-29T19:12:54;93621.25;;;-18.95
70415;BMP280;57837;52.064;113.478;2023-01-29T19:15:58;93610.84;;;-19.02
70415;BMP280;57837;52.064;113.478;2023-01-29T19:19:01;93606.28;;;-19.20
70415;BMP280;57837;52.064;113.478;2023-01-29T19:22:06;93607.22;;;-19.26
70415;BMP280;57837;52.064;113.478;2023-01-29T19:25:10;93599.09;;;-19.27
70415;BMP280;57837;52.064;113.478;2023-01-29T19:28:14;93599.97;;;-19.06
70415;BMP280;57837;52.064;113.478;2023-01-29T19:31:18;93588.13;;;-18.72
70415;BMP280;57837;52.064;113.478;2023-01-29T19:34:22;93581.72;;;-18.68
70415;BMP280;57837;52.064;113.478;2023-01-29T19:37:25;93580.34;;;-18.43
70415;BMP280;57837;52.064;113.478;2023-01-29T19:40:30;93571.97;;;-18.32